Time;durP1;ratioP1;P1;durP2;ratioP2;P2;SDS_P1;SDS_P2;PMS_P1;PMS_P2;Temp;Humidity;BMP_temperature;BMP_pressure;BME280_temperature;BME280_humidity;BME280_pressure;Samples;Min_cycle;Max_cycle;Signal;HPM_P1;HPM_P2
2022/01/16 00:04:31;;;;;;;29.02;19.55;;;0.60;99.90;;;;;;5036540;28;20213;-88
2022/01/16 00:07:01;;;;;;;30.60;19.85;;;0.60;99.90;;;;;;5035109;28;20249;-88
2022/01/16 00:09:27;;;;;;;38.53;22.00;;;0.50;99.90;;;;;;5036050;28;20233;-88
2022/01/16 00:11:56;;;;;;;39.53;20.57;;;0.50;99.90;;;;;;5035468;28;20179;-89
2022/01/16 00:14:21;;;;;;;36.78;22.00;;;0.50;99.90;;;;;;5036815;28;20378;-88
2022/01/16 00:16:47;;;;;;;37.90;20.70;;;0.50;99.90;;;;;;5034209;28;20187;-88
2022/01/16 00:19:12;;;;;;;30.77;19.37;;;0.40;99.90;;;;;;5036085;28;20582;-89
2022/01/16 00:21:41;;;;;;;31.17;18.80;;;0.40;99.90;;;;;;5033901;28;20198;-88
2022/01/16 00:24:07;;;;;;;34.72;19.67;;;0.40;99.90;;;;;;5033796;28;20214;-89
2022/01/16 00:26:35;;;;;;;38.10;20.08;;;0.40;99.90;;;;;;5034109;28;20201;-88
2022/01/16 00:29:01;;;;;;;32.72;19.48;;;0.40;99.90;;;;;;5034280;28;20273;-89
2022/01/16 00:31:27;;;;;;;30.85;20.88;;;0.40;99.90;;;;;;5035496;28;20214;-89
2022/01/16 00:33:53;;;;;;;28.63;19.17;;;0.40;99.90;;;;;;5035226;28;20170;-88
2022/01/16 00:36:20;;;;;;;33.53;20.23;;;0.40;99.90;;;;;;5035347;28;20944;-89
2022/01/16 00:38:48;;;;;;;31.88;19.38;;;0.40;99.90;;;;;;5035022;28;20178;-87
2022/01/16 00:41:16;;;;;;;31.35;18.52;;;0.30;99.90;;;;;;5037311;28;20215;-89
2022/01/16 00:43:42;;;;;;;34.38;19.42;;;0.30;99.90;;;;;;5035857;28;20696;-89
2022/01/16 00:46:08;;;;;;;36.27;17.57;;;0.30;99.90;;;;;;5034160;28;20206;-87
2022/01/16 00:48:34;;;;;;;37.97;21.70;;;0.20;99.90;;;;;;5034858;28;20435;-89
2022/01/16 00:50:59;;;;;;;34.03;20.33;;;0.20;99.90;;;;;;5034960;28;20460;-89
2022/01/16 00:53:25;;;;;;;22.40;15.80;;;0.20;99.90;;;;;;5033678;28;20265;-89
2022/01/16 00:55:51;;;;;;;29.80;15.67;;;0.20;99.90;;;;;;5035725;28;20225;-88
2022/01/16 00:58:16;;;;;;;26.87;16.90;;;0.20;99.90;;;;;;5034098;28;20187;-88
2022/01/16 01:00:42;;;;;;;28.17;16.03;;;0.20;99.90;;;;;;5034835;28;20582;-89
2022/01/16 01:03:08;;;;;;;25.40;17.17;;;0.10;99.90;;;;;;5033913;28;20615;-88
2022/01/16 01:05:35;;;;;;;25.13;17.10;;;0.10;99.90;;;;;;5033433;28;20569;-88
2022/01/16 01:08:02;;;;;;;26.40;16.42;;;0.10;99.90;;;;;;5033671;28;20460;-88
2022/01/16 01:10:34;;;;;;;27.90;17.10;;;0.10;99.90;;;;;;5034848;28;20670;-88
2022/01/16 01:13:11;;;;;;;27.27;15.73;;;0.10;99.90;;;;;;5039002;28;20536;-88
2022/01/16 01:15:47;;;;;;;23.40;15.38;;;0.10;99.90;;;;;;5048074;28;20205;-88
2022/01/16 01:18:14;;;;;;;25.92;16.77;;;0.00;99.90;;;;;;5033373;28;20171;-89
2022/01/16 01:20:41;;;;;;;25.42;15.77;;;0.00;99.90;;;;;;5033917;28;20221;-89
2022/01/16 01:23:08;;;;;;;27.52;16.17;;;-0.10;99.90;;;;;;5033308;28;20268;-88
2022/01/16 01:25:34;;;;;;;27.92;17.75;;;-0.10;99.90;;;;;;5033233;28;20578;-88
2022/01/16 01:28:00;;;;;;;36.15;18.70;;;-0.10;99.90;;;;;;5033229;28;20194;-88
2022/01/16 01:30:26;;;;;;;28.33;16.57;;;-0.20;99.90;;;;;;5033085;28;20231;-90
2022/01/16 01:32:56;;;;;;;30.83;16.77;;;-0.20;99.90;;;;;;5034607;28;20261;-88
2022/01/16 01:35:22;;;;;;;33.45;18.33;;;-0.20;99.90;;;;;;5034361;28;20686;-89
2022/01/16 01:37:49;;;;;;;41.08;20.38;;;-0.20;99.90;;;;;;5033482;28;20182;-89
2022/01/16 01:40:22;;;;;;;40.63;23.33;;;-0.20;99.90;;;;;;5032776;28;20348;-89
2022/01/16 01:43:02;;;;;;;47.65;24.30;;;-0.30;99.90;;;;;;5032929;28;20254;-87
2022/01/16 01:51:19;;;;;;;47.00;26.13;;;-0.30;99.90;;;;;;5038416;28;20294;-87
2022/01/16 01:53:45;;;;;;;57.22;27.00;;;-0.30;99.90;;;;;;5037488;28;20189;-89
2022/01/16 01:56:13;;;;;;;59.97;28.23;;;-0.30;99.90;;;;;;5042130;28;20202;-87
2022/01/16 01:58:39;;;;;;;52.00;25.08;;;-0.40;99.90;;;;;;5042208;28;20183;-88
2022/01/16 02:01:06;;;;;;;45.78;25.48;;;-0.40;99.90;;;;;;5040456;28;20202;-89
2022/01/16 02:03:42;;;;;;;47.45;22.42;;;-0.40;99.90;;;;;;5050520;28;20758;-88
2022/01/16 02:06:24;;;;;;;60.83;29.33;;;-0.40;99.90;;;;;;5043781;28;20260;-89
2022/01/16 02:08:55;;;;;;;54.70;30.40;;;-0.40;99.90;;;;;;5040169;28;20235;-90
2022/01/16 02:11:25;;;;;;;51.08;27.58;;;-0.50;99.90;;;;;;5039836;28;20193;-87
2022/01/16 02:28:00;;;;;;;51.47;26.38;;;-0.60;99.90;;;;;;5057591;28;20200;-88
2022/01/16 02:33:24;;;;;;;48.03;25.87;;;-0.60;99.90;;;;;;5057459;28;20174;-86
2022/01/16 02:35:53;;;;;;;45.05;25.50;;;-0.60;99.90;;;;;;5039344;28;20206;-87
2022/01/16 02:38:21;;;;;;;46.22;23.35;;;-0.60;99.90;;;;;;5039600;28;20272;-89
2022/01/16 02:40:58;;;;;;;46.78;23.98;;;-0.70;99.90;;;;;;5039140;28;20212;-87
2022/01/16 02:43:30;;;;;;;48.25;28.02;;;-0.70;99.90;;;;;;5039663;28;20452;-89
2022/01/16 02:47:01;;;;;;;78.68;42.63;;;-0.70;99.90;;;;;;5039032;28;20198;-87
2022/01/16 02:48:56;;;;;;;76.35;44.38;;;-0.60;99.90;;;;;;5054273;28;20194;-87
2022/01/16 02:51:25;;;;;;;57.00;30.65;;;-0.60;99.90;;;;;;5059217;28;20206;-88
2022/01/16 02:53:52;;;;;;;57.78;31.40;;;-0.70;99.90;;;;;;5049548;28;20170;-89
2022/01/16 02:56:18;;;;;;;55.63;30.23;;;-0.70;99.90;;;;;;5042014;28;20202;-88
2022/01/16 02:58:45;;;;;;;56.58;27.88;;;-0.70;99.90;;;;;;5060808;28;20174;-87
2022/01/16 03:01:13;;;;;;;56.17;33.60;;;-0.70;99.90;;;;;;5038361;28;20201;-88
2022/01/16 03:03:39;;;;;;;56.90;32.10;;;-0.80;99.90;;;;;;5038600;28;20214;-88
2022/01/16 03:06:04;;;;;;;57.28;32.88;;;-0.80;99.90;;;;;;5038739;28;20674;-89
2022/01/16 03:08:30;;;;;;;55.23;28.83;;;-0.90;99.90;;;;;;5038468;28;20205;-87
2022/01/16 03:13:22;;;;;;;46.40;25.20;;;-0.90;99.90;;;;;;5056279;28;20439;-87
2022/01/16 03:15:51;;;;;;;38.57;20.97;;;-0.90;99.90;;;;;;5038469;28;20206;-88
2022/01/16 03:23:27;;;;;;;40.95;21.50;;;-1.10;99.90;;;;;;5056947;28;20213;-87
2022/01/16 03:25:53;;;;;;;35.97;20.03;;;-1.10;99.90;;;;;;5038521;28;20202;-89
2022/01/16 03:28:20;;;;;;;34.90;19.70;;;-1.20;99.90;;;;;;5038277;28;20206;-88
2022/01/16 03:30:47;;;;;;;29.05;18.30;;;-1.20;99.90;;;;;;5038451;28;20622;-87
2022/01/16 03:33:12;;;;;;;34.70;19.27;;;-1.20;99.90;;;;;;5038178;28;20544;-86
2022/01/16 03:35:39;;;;;;;37.53;20.67;;;-1.20;99.90;;;;;;5039232;28;20293;-87
2022/01/16 03:38:06;;;;;;;33.33;19.17;;;-1.20;99.90;;;;;;5039428;28;20916;-86
2022/01/16 03:40:32;;;;;;;34.13;17.35;;;-1.30;99.90;;;;;;5038218;28;20585;-87
2022/01/16 03:43:04;;;;;;;35.88;20.00;;;-1.30;99.90;;;;;;5042074;28;20204;-88
2022/01/16 03:45:31;;;;;;;27.98;17.90;;;-1.30;99.90;;;;;;5051718;28;20194;-88
2022/01/16 03:47:58;;;;;;;32.72;18.23;;;-1.30;99.90;;;;;;5049899;28;20174;-87
2022/01/16 03:50:24;;;;;;;32.40;17.60;;;-1.30;99.90;;;;;;5054622;28;20210;-87
2022/01/16 03:52:50;;;;;;;34.80;20.10;;;-1.30;99.90;;;;;;5037786;28;20268;-87
2022/01/16 03:55:16;;;;;;;66.00;31.00;;;-1.30;99.90;;;;;;5038039;28;20233;-88
2022/01/16 03:57:42;;;;;;;142.07;54.10;;;-1.30;99.90;;;;;;5055507;28;20382;-88
2022/01/16 04:00:08;;;;;;;214.50;77.80;;;-1.40;99.90;;;;;;5037653;28;20206;-88
2022/01/16 04:02:34;;;;;;;292.08;86.18;;;-1.40;99.90;;;;;;5056067;28;20529;-87
2022/01/16 04:05:00;;;;;;;83.40;33.77;;;-1.40;99.90;;;;;;5037326;28;20232;-87
2022/01/16 04:07:31;;;;;;;38.00;22.47;;;-1.40;99.90;;;;;;5033715;28;20821;-88
2022/01/16 04:09:57;;;;;;;37.17;21.00;;;-1.40;99.90;;;;;;5034085;28;20206;-87
2022/01/16 04:12:24;;;;;;;130.13;50.57;;;-1.50;99.90;;;;;;5034530;28;20546;-88
2022/01/16 04:17:21;;;;;;;34.47;19.83;;;-1.50;99.90;;;;;;5035410;28;20181;-86
2022/01/16 04:19:48;;;;;;;30.70;19.13;;;-1.50;99.90;;;;;;5036778;28;20199;-88
2022/01/16 04:22:15;;;;;;;31.25;19.25;;;-1.60;99.90;;;;;;5039185;28;20206;-87
2022/01/16 04:24:41;;;;;;;41.50;22.63;;;-1.70;99.90;;;;;;5037029;28;20214;-86
2022/01/16 04:27:08;;;;;;;44.70;25.73;;;-1.70;99.90;;;;;;5044355;28;20188;-86
2022/01/16 04:29:33;;;;;;;47.22;27.05;;;-1.80;99.90;;;;;;5052034;28;20189;-86
2022/01/16 04:31:59;;;;;;;51.03;27.07;;;-1.80;99.90;;;;;;5036048;28;20212;-86
2022/01/16 04:34:25;;;;;;;42.50;25.80;;;-1.80;99.90;;;;;;5036333;28;20189;-86
2022/01/16 04:36:50;;;;;;;55.47;28.00;;;-1.90;99.90;;;;;;5040652;28;20274;-87
2022/01/16 04:39:19;;;;;;;38.37;24.07;;;-2.00;99.90;;;;;;5038020;28;20544;-87
2022/01/16 04:44:30;;;;;;;40.38;24.92;;;-2.00;99.90;;;;;;5036148;28;20309;-87
2022/01/16 04:46:57;;;;;;;44.10;25.20;;;-2.00;99.90;;;;;;5033781;28;20178;-86
2022/01/16 04:49:23;;;;;;;42.15;25.20;;;-2.10;99.90;;;;;;5033420;28;20178;-86
2022/01/16 04:51:49;;;;;;;48.92;25.02;;;-2.10;99.90;;;;;;5033728;28;20186;-87
2022/01/16 04:54:15;;;;;;;90.28;39.63;;;-2.00;99.90;;;;;;5034676;28;20591;-88
2022/01/16 04:56:40;;;;;;;181.03;70.47;;;-2.00;99.90;;;;;;5033905;28;20198;-87
2022/01/16 04:59:06;;;;;;;261.77;96.47;;;-2.00;99.90;;;;;;5034634;28;20167;-88
2022/01/16 05:01:32;;;;;;;225.43;89.10;;;-2.00;99.90;;;;;;5035182;28;20651;-87
2022/01/16 05:03:58;;;;;;;123.53;52.92;;;-2.10;99.90;;;;;;5033444;28;20683;-89
2022/01/16 05:06:24;;;;;;;78.93;40.93;;;-2.00;99.90;;;;;;5037741;28;20225;-89
2022/01/16 05:08:50;;;;;;;79.10;35.50;;;-2.10;99.90;;;;;;5054498;28;20176;-88
2022/01/16 05:11:21;;;;;;;51.45;26.90;;;-2.20;99.90;;;;;;5038073;28;20436;-89
2022/01/16 05:18:57;;;;;;;48.45;27.38;;;-2.30;99.90;;;;;;5067032;28;20433;-88
2022/01/16 05:21:23;;;;;;;46.43;27.70;;;-2.30;99.90;;;;;;5040089;28;20206;-87
2022/01/16 05:23:49;;;;;;;46.17;26.90;;;-2.30;99.90;;;;;;5042495;28;20884;-88
2022/01/16 05:26:18;;;;;;;46.10;28.70;;;-2.30;99.90;;;;;;5072196;28;20198;-89
2022/01/16 05:28:43;;;;;;;45.60;28.42;;;-2.30;99.90;;;;;;5042398;28;20174;-87
2022/01/16 05:31:09;;;;;;;54.47;31.07;;;-2.30;99.90;;;;;;5040403;28;20260;-87
2022/01/16 05:33:35;;;;;;;46.93;28.63;;;-2.30;99.90;;;;;;5040623;28;20411;-87
2022/01/16 05:36:01;;;;;;;52.47;28.57;;;-2.30;99.90;;;;;;5040494;28;20284;-88
2022/01/16 05:38:27;;;;;;;53.43;28.73;;;-2.30;99.90;;;;;;5040230;28;20593;-88
2022/01/16 05:40:52;;;;;;;49.20;28.17;;;-2.40;99.90;;;;;;5040239;28;20618;-87
2022/01/16 05:43:18;;;;;;;68.07;32.43;;;-2.40;99.90;;;;;;5040254;28;20975;-86
2022/01/16 05:45:44;;;;;;;61.15;30.65;;;-2.40;99.90;;;;;;5043367;28;20213;-86
2022/01/16 05:48:10;;;;;;;55.77;32.73;;;-2.50;99.90;;;;;;5063230;28;20166;-88
2022/01/16 05:50:36;;;;;;;57.17;29.30;;;-2.50;99.90;;;;;;5045199;28;20477;-89
2022/01/16 05:53:02;;;;;;;56.88;29.70;;;-2.60;99.90;;;;;;5041628;28;20178;-88
2022/01/16 05:55:31;;;;;;;54.28;28.25;;;-2.60;99.90;;;;;;5044974;28;20259;-87
2022/01/16 05:57:57;;;;;;;48.97;29.75;;;-2.60;99.90;;;;;;5040599;28;20264;-89
2022/01/16 06:00:23;;;;;;;61.78;31.25;;;-2.60;99.90;;;;;;5041668;28;20260;-88
2022/01/16 06:02:49;;;;;;;58.60;29.83;;;-2.60;99.90;;;;;;5040038;28;20178;-89
2022/01/16 06:05:16;;;;;;;51.00;28.97;;;-2.70;99.90;;;;;;5040299;28;20893;-89
2022/01/16 06:07:51;;;;;;;53.60;30.05;;;-2.70;99.90;;;;;;5059257;28;20834;-86
2022/01/16 06:10:17;;;;;;;52.63;30.73;;;-2.70;99.90;;;;;;5060987;28;20705;-87
2022/01/16 06:12:44;;;;;;;51.93;29.10;;;-2.70;99.90;;;;;;5042091;28;20169;-86
2022/01/16 06:15:10;;;;;;;55.78;32.55;;;-2.80;99.90;;;;;;5056779;28;20417;-89
2022/01/16 06:17:36;;;;;;;61.17;30.70;;;-2.80;99.90;;;;;;5061246;28;20170;-88
2022/01/16 06:20:03;;;;;;;58.07;30.93;;;-2.90;99.90;;;;;;5040746;28;20205;-87
2022/01/16 06:22:28;;;;;;;53.63;31.55;;;-2.90;99.90;;;;;;5039386;28;20418;-88
2022/01/16 06:24:54;;;;;;;61.40;34.30;;;-2.90;99.90;;;;;;5039400;28;20225;-86
2022/01/16 06:27:20;;;;;;;66.00;35.83;;;-2.90;99.90;;;;;;5040856;28;20174;-89
2022/01/16 06:29:45;;;;;;;56.77;34.00;;;-2.90;99.90;;;;;;5057532;28;20202;-89
2022/01/16 06:32:11;;;;;;;64.97;35.23;;;-2.90;99.90;;;;;;5039422;28;20433;-89
2022/01/16 06:34:37;;;;;;;58.57;35.63;;;-2.90;99.90;;;;;;5039126;28;20454;-87
2022/01/16 06:37:03;;;;;;;82.90;38.10;;;-2.90;99.90;;;;;;5040010;28;20182;-89
2022/01/16 06:39:29;;;;;;;69.97;37.05;;;-2.90;99.90;;;;;;5039570;28;20945;-87
2022/01/16 06:41:56;;;;;;;64.43;35.00;;;-2.90;99.90;;;;;;5039417;28;20174;-87
2022/01/16 06:44:22;;;;;;;70.00;38.45;;;-2.80;99.90;;;;;;5038623;28;20505;-89
2022/01/16 06:46:48;;;;;;;72.55;43.13;;;-2.80;99.90;;;;;;5056943;28;20526;-89
2022/01/16 06:49:13;;;;;;;108.90;51.33;;;-2.80;99.90;;;;;;5056825;28;20261;-87
2022/01/16 06:51:39;;;;;;;87.47;44.67;;;-2.90;99.90;;;;;;5040537;28;20206;-88
2022/01/16 06:54:05;;;;;;;76.13;42.33;;;-2.90;99.90;;;;;;5039929;28;20182;-89
2022/01/16 06:56:31;;;;;;;69.60;40.97;;;-2.90;99.90;;;;;;5039093;28;20202;-87
2022/01/16 06:58:58;;;;;;;73.63;39.67;;;-2.90;99.90;;;;;;5056843;28;20406;-89
2022/01/16 07:01:25;;;;;;;103.03;49.83;;;-2.90;99.90;;;;;;5038887;28;20216;-88
2022/01/16 07:03:51;;;;;;;88.88;45.50;;;-2.90;99.90;;;;;;5039388;28;20284;-87
2022/01/16 07:06:17;;;;;;;92.70;47.20;;;-2.90;99.90;;;;;;5039483;28;20198;-90
2022/01/16 07:08:42;;;;;;;80.07;44.35;;;-2.90;99.90;;;;;;5039396;28;20182;-89
2022/01/16 07:11:09;;;;;;;86.97;47.10;;;-2.80;99.90;;;;;;5039253;28;20202;-90
2022/01/16 07:13:35;;;;;;;87.78;44.78;;;-2.80;99.90;;;;;;5054299;28;20178;-90
2022/01/16 07:16:01;;;;;;;92.60;43.70;;;-2.80;99.90;;;;;;5039200;28;20255;-89
2022/01/16 07:18:30;;;;;;;72.97;40.42;;;-2.70;99.90;;;;;;5041764;28;20252;-90
2022/01/16 07:20:56;;;;;;;82.05;48.00;;;-2.70;99.90;;;;;;5038636;28;20268;-89
2022/01/16 07:23:23;;;;;;;94.77;46.70;;;-2.50;99.90;;;;;;5038807;28;20248;-88
2022/01/16 07:25:49;;;;;;;89.43;46.20;;;-2.40;99.90;;;;;;5038559;28;20283;-89
2022/01/16 07:28:15;;;;;;;79.75;45.28;;;-2.40;99.90;;;;;;5038440;28;20193;-89
2022/01/16 07:30:42;;;;;;;90.68;46.47;;;-2.30;99.90;;;;;;5043261;28;20251;-89
2022/01/16 07:33:08;;;;;;;86.38;45.65;;;-2.30;99.90;;;;;;5038717;28;20174;-90
2022/01/16 07:35:35;;;;;;;80.75;42.65;;;-2.30;99.90;;;;;;5038336;28;20217;-92
2022/01/16 07:38:02;;;;;;;93.60;42.17;;;-2.30;99.90;;;;;;5038736;28;20550;-90
2022/01/16 07:40:28;;;;;;;85.15;41.67;;;-2.20;99.90;;;;;;5056277;28;20210;-92
2022/01/16 07:42:54;;;;;;;74.30;42.33;;;-2.20;99.90;;;;;;5038545;28;20256;-91
2022/01/16 07:45:20;;;;;;;87.00;45.55;;;-2.10;99.90;;;;;;5039790;28;20821;-89
2022/01/16 07:47:46;;;;;;;70.80;41.53;;;-2.00;99.90;;;;;;5037154;28;20174;-88
2022/01/16 07:50:14;;;;;;;77.83;44.93;;;-1.80;99.90;;;;;;5038235;28;20499;-90
2022/01/16 07:52:39;;;;;;;81.68;43.70;;;-1.70;99.90;;;;;;5038508;28;20927;-89
2022/01/16 07:55:05;;;;;;;84.37;44.70;;;-1.50;99.90;;;;;;5038216;28;20210;-89
2022/01/16 07:57:31;;;;;;;83.22;44.28;;;-1.20;99.90;;;;;;5039932;28;20174;-89
2022/01/16 07:59:57;;;;;;;77.60;40.50;;;-0.80;99.90;;;;;;5037882;28;20209;-88
2022/01/16 08:02:23;;;;;;;78.18;40.28;;;-0.30;99.90;;;;;;5038206;28;20394;-91
2022/01/16 08:04:49;;;;;;;75.37;40.10;;;0.00;99.90;;;;;;5037271;28;20312;-88
2022/01/16 08:07:15;;;;;;;87.40;48.30;;;0.20;99.90;;;;;;5037398;28;20441;-89
2022/01/16 08:09:41;;;;;;;99.60;50.20;;;0.50;99.90;;;;;;5039393;28;20508;-88
2022/01/16 08:12:07;;;;;;;108.07;49.67;;;0.70;99.90;;;;;;5055233;28;20169;-87
2022/01/16 08:14:34;;;;;;;95.18;51.05;;;1.00;99.90;;;;;;5060787;28;20411;-89
2022/01/16 08:17:00;;;;;;;78.03;43.40;;;1.20;99.90;;;;;;5040455;28;20178;-88
2022/01/16 08:19:30;;;;;;;73.47;41.85;;;1.40;99.90;;;;;;5040822;28;20182;-89
2022/01/16 08:21:56;;;;;;;71.35;41.78;;;1.70;99.90;;;;;;5038612;28;20182;-88
2022/01/16 08:24:22;;;;;;;81.47;46.15;;;1.70;99.90;;;;;;5043833;28;20216;-91
2022/01/16 08:26:48;;;;;;;79.15;43.15;;;1.50;99.90;;;;;;5041716;28;20181;-86
2022/01/16 08:29:14;;;;;;;64.63;38.10;;;1.30;99.90;;;;;;5038212;28;20631;-88
2022/01/16 08:31:40;;;;;;;85.67;45.93;;;0.90;99.90;;;;;;5037285;28;20580;-88
2022/01/16 08:34:05;;;;;;;81.70;46.87;;;0.60;99.90;;;;;;5037537;28;20265;-88
2022/01/16 08:36:31;;;;;;;77.63;42.15;;;0.40;99.90;;;;;;5038038;28;20206;-88
2022/01/16 08:38:57;;;;;;;68.47;40.93;;;0.10;99.90;;;;;;5037701;28;20247;-88
2022/01/16 08:41:24;;;;;;;78.97;40.40;;;-0.10;99.90;;;;;;5055418;28;20205;-89
2022/01/16 08:43:51;;;;;;;73.85;41.85;;;-0.40;99.90;;;;;;5037499;28;20674;-88
2022/01/16 08:46:17;;;;;;;76.72;39.95;;;-0.60;99.90;;;;;;5070142;28;20189;-89
2022/01/16 08:48:42;;;;;;;68.43;38.80;;;-0.70;99.90;;;;;;5040441;28;20189;-88
2022/01/16 08:51:08;;;;;;;80.20;41.57;;;-0.90;99.90;;;;;;5037348;28;20213;-87
2022/01/16 08:53:34;;;;;;;86.87;45.37;;;-1.00;99.90;;;;;;5036816;28;20182;-87
2022/01/16 08:56:00;;;;;;;79.23;41.43;;;-1.20;99.90;;;;;;5037201;28;20444;-88
2022/01/16 08:58:27;;;;;;;73.77;40.23;;;-1.30;99.90;;;;;;5036815;28;20497;-88
2022/01/16 09:00:53;;;;;;;71.55;42.67;;;-1.40;99.90;;;;;;5036711;28;20426;-88
2022/01/16 09:03:20;;;;;;;72.07;40.47;;;-1.50;99.90;;;;;;5037235;28;20650;-88
2022/01/16 09:05:46;;;;;;;75.05;42.00;;;-1.60;99.90;;;;;;5036480;28;20304;-88
2022/01/16 09:08:13;;;;;;;88.32;43.88;;;-1.60;99.90;;;;;;5054458;28;20217;-89
2022/01/16 09:10:41;;;;;;;79.95;42.50;;;-1.60;99.90;;;;;;5037012;28;20201;-87
2022/01/16 09:13:12;;;;;;;90.88;41.58;;;-1.60;99.90;;;;;;5054757;28;20530;-87
2022/01/16 09:15:45;;;;;;;89.45;44.65;;;-1.60;99.90;;;;;;5037292;28;20697;-88
2022/01/16 09:18:11;;;;;;;88.75;44.15;;;-1.60;99.90;;;;;;5037192;28;20639;-88
2022/01/16 09:20:38;;;;;;;92.75;46.15;;;-1.60;99.90;;;;;;5036812;28;20209;-88
2022/01/16 09:23:04;;;;;;;88.18;42.50;;;-1.50;99.90;;;;;;5054679;28;20662;-87
2022/01/16 09:25:30;;;;;;;72.40;40.50;;;-1.20;99.90;;;;;;5037651;28;20213;-88
2022/01/16 09:27:55;;;;;;;74.97;42.30;;;-1.00;99.90;;;;;;5036800;28;20417;-87
2022/01/16 09:30:22;;;;;;;77.07;41.80;;;-0.90;99.90;;;;;;5036509;28;20304;-87
2022/01/16 09:32:49;;;;;;;77.43;40.88;;;-0.90;99.90;;;;;;5054508;28;20223;-89
2022/01/16 09:35:16;;;;;;;87.10;39.30;;;-0.90;99.90;;;;;;5054268;28;20197;-87
2022/01/16 09:37:42;;;;;;;82.30;43.58;;;-0.80;99.90;;;;;;5039506;28;20184;-87
2022/01/16 09:40:09;;;;;;;86.60;48.03;;;-0.80;99.90;;;;;;5036353;28;20216;-87
2022/01/16 09:42:35;;;;;;;90.28;50.30;;;-0.80;99.90;;;;;;5036759;28;20185;-88
2022/01/16 09:45:07;;;;;;;80.70;44.03;;;-0.70;99.90;;;;;;5036179;28;20602;-87
2022/01/16 09:47:33;;;;;;;78.97;44.83;;;-0.70;99.90;;;;;;5036600;28;20171;-87
2022/01/16 09:49:59;;;;;;;83.97;42.47;;;-0.70;99.90;;;;;;5054278;28;20643;-87
2022/01/16 09:52:25;;;;;;;76.50;44.47;;;-0.70;99.90;;;;;;5037908;28;20197;-87
2022/01/16 09:54:50;;;;;;;85.68;44.88;;;-0.70;99.90;;;;;;5036061;28;20205;-88
2022/01/16 09:57:17;;;;;;;73.67;41.03;;;-0.80;99.90;;;;;;5054341;28;20181;-87
2022/01/16 09:59:46;;;;;;;80.65;41.58;;;-0.80;99.90;;;;;;5036558;28;20508;-87
2022/01/16 10:02:12;;;;;;;75.45;41.70;;;-0.80;99.90;;;;;;5036886;28;20315;-88
2022/01/16 10:04:43;;;;;;;94.55;50.70;;;-0.90;99.90;;;;;;5041054;28;20256;-88
2022/01/16 10:07:14;;;;;;;114.28;57.22;;;-0.90;99.90;;;;;;5039749;28;20257;-87
2022/01/16 10:09:44;;;;;;;90.75;49.20;;;-0.90;99.90;;;;;;5037547;28;20663;-87
2022/01/16 10:12:17;;;;;;;102.13;55.45;;;-0.90;99.90;;;;;;5040327;28;20177;-87
2022/01/16 10:14:47;;;;;;;118.03;53.40;;;-0.90;99.90;;;;;;5057726;28;20632;-87
2022/01/16 10:17:20;;;;;;;88.15;50.00;;;-0.80;99.90;;;;;;5057036;28;20241;-87
2022/01/16 10:19:57;;;;;;;120.90;56.67;;;-0.80;99.90;;;;;;5057703;28;20209;-87
2022/01/16 10:22:22;;;;;;;111.47;53.70;;;-0.80;99.90;;;;;;5058731;28;20173;-87
2022/01/16 10:24:52;;;;;;;136.40;70.33;;;-0.80;99.90;;;;;;5071710;28;20309;-88
2022/01/16 10:27:19;;;;;;;175.90;98.50;;;-0.80;99.90;;;;;;5044253;28;20435;-87
2022/01/16 10:29:49;;;;;;;140.90;72.55;;;-0.70;99.90;;;;;;5040516;28;20202;-87
2022/01/16 10:32:19;;;;;;;126.50;57.63;;;-0.70;99.90;;;;;;5039206;28;20232;-87
2022/01/16 10:34:47;;;;;;;130.95;60.83;;;-0.70;99.90;;;;;;5039051;28;20643;-87
2022/01/16 10:37:31;;;;;;;127.10;59.65;;;-0.70;99.90;;;;;;5057814;28;20170;-87
2022/01/16 10:40:14;;;;;;;124.15;57.10;;;-0.60;99.90;;;;;;5039400;28;20589;-87
2022/01/16 10:42:41;;;;;;;90.05;47.33;;;-0.50;99.90;;;;;;5040137;28;20200;-87
2022/01/16 10:45:13;;;;;;;77.57;42.35;;;-0.30;99.90;;;;;;5058521;28;20224;-88
2022/01/16 10:47:41;;;;;;;76.13;40.40;;;-0.20;99.90;;;;;;5057123;28;20228;-87
2022/01/16 10:50:15;;;;;;;75.53;42.10;;;-0.20;99.90;;;;;;5039152;28;20202;-87
2022/01/16 10:52:57;;;;;;;81.75;45.22;;;-0.10;99.90;;;;;;5039456;28;20177;-87
2022/01/16 10:55:41;;;;;;;69.35;39.55;;;0.00;99.90;;;;;;5044930;28;20232;-87
2022/01/16 10:58:09;;;;;;;70.95;40.08;;;0.10;99.90;;;;;;5055355;28;20171;-88
2022/01/16 11:00:36;;;;;;;69.18;38.55;;;0.00;99.90;;;;;;5044841;28;20202;-88
2022/01/16 11:03:04;;;;;;;67.38;36.80;;;0.00;99.90;;;;;;5039006;28;20182;-87
2022/01/16 11:05:37;;;;;;;64.82;37.03;;;-0.10;99.90;;;;;;5038739;28;20229;-87
2022/01/16 11:08:06;;;;;;;69.43;38.47;;;-0.10;99.90;;;;;;5042559;28;20217;-88
2022/01/16 11:10:38;;;;;;;75.13;40.50;;;-0.20;99.90;;;;;;5048341;28;20198;-87
2022/01/16 11:13:08;;;;;;;72.43;40.60;;;-0.20;99.90;;;;;;5059073;28;20170;-86
2022/01/16 11:15:35;;;;;;;88.30;44.45;;;-0.20;99.90;;;;;;5060713;28;20209;-85
2022/01/16 11:18:02;;;;;;;87.68;44.33;;;-0.20;99.90;;;;;;5045023;28;20268;-87
2022/01/16 11:20:34;;;;;;;76.40;42.10;;;-0.30;99.90;;;;;;5056783;28;20197;-87
2022/01/16 11:23:05;;;;;;;91.97;41.50;;;-0.30;99.90;;;;;;5038808;28;20176;-88
2022/01/16 11:25:34;;;;;;;82.22;45.60;;;-0.30;99.90;;;;;;5038467;28;20317;-87
2022/01/16 11:28:10;;;;;;;92.32;46.95;;;-0.30;99.90;;;;;;5056377;28;20185;-88
2022/01/16 11:30:39;;;;;;;83.18;45.65;;;-0.30;99.90;;;;;;5056068;28;20272;-87
2022/01/16 11:33:06;;;;;;;93.57;47.40;;;-0.30;99.90;;;;;;5038458;28;20635;-87
2022/01/16 11:35:34;;;;;;;87.82;45.35;;;-0.30;99.90;;;;;;5039028;28;20263;-87
2022/01/16 11:38:01;;;;;;;95.45;48.70;;;-0.30;99.90;;;;;;5056028;28;20218;-86
2022/01/16 11:40:47;;;;;;;92.20;45.80;;;-0.20;99.90;;;;;;5037879;28;20201;-87
2022/01/16 11:43:19;;;;;;;112.60;58.92;;;-0.20;99.90;;;;;;5055861;28;20273;-87
2022/01/16 11:45:51;;;;;;;90.72;46.78;;;-0.20;99.90;;;;;;5056190;28;20198;-87
2022/01/16 11:48:37;;;;;;;86.75;45.55;;;-0.20;99.90;;;;;;5039165;28;20193;-88
2022/01/16 11:51:27;;;;;;;77.00;42.13;;;-0.20;99.90;;;;;;5028144;28;20216;-85
2022/01/16 11:54:05;;;;;;;80.88;37.97;;;-0.20;99.90;;;;;;5058791;28;20590;-87
2022/01/16 11:56:40;;;;;;;84.03;45.50;;;-0.20;99.90;;;;;;5073887;28;20222;-87
2022/01/16 11:59:14;;;;;;;92.20;46.30;;;-0.20;99.90;;;;;;5045501;28;20180;-87
2022/01/16 12:02:09;;;;;;;88.93;44.50;;;-0.20;99.90;;;;;;5038519;28;20200;-87
2022/01/16 12:04:38;;;;;;;81.30;44.00;;;-0.20;99.90;;;;;;5036059;28;20267;-87
2022/01/16 12:07:13;;;;;;;92.47;45.47;;;-0.10;99.90;;;;;;5037472;28;20325;-87
2022/01/16 12:09:46;;;;;;;81.25;43.83;;;-0.10;99.90;;;;;;5037689;28;20204;-87
2022/01/16 12:12:11;;;;;;;90.03;48.88;;;0.00;99.90;;;;;;5037957;28;20200;-88
2022/01/16 12:15:04;;;;;;;71.50;40.87;;;0.00;99.90;;;;;;5040183;28;20210;-88
2022/01/16 12:17:41;;;;;;;82.10;41.70;;;0.10;99.90;;;;;;5049953;28;20255;-87
2022/01/16 12:20:13;;;;;;;75.53;40.70;;;0.10;99.90;;;;;;5037873;28;20225;-87
2022/01/16 12:22:59;;;;;;;80.05;42.40;;;0.20;99.90;;;;;;5058317;28;20623;-88
2022/01/16 12:25:25;;;;;;;82.90;41.17;;;0.20;99.90;;;;;;5054889;28;20300;-87
2022/01/16 12:27:55;;;;;;;92.30;43.67;;;0.30;99.90;;;;;;5054881;28;20253;-87
2022/01/16 12:30:32;;;;;;;84.20;42.53;;;0.30;99.90;;;;;;5054940;28;20268;-86
2022/01/16 12:33:16;;;;;;;76.47;39.88;;;0.30;99.90;;;;;;5038118;28;20260;-87
2022/01/16 12:35:42;;;;;;;78.50;41.63;;;0.40;99.90;;;;;;5054666;28;20217;-87
2022/01/16 12:38:24;;;;;;;71.30;36.40;;;0.40;99.90;;;;;;5055036;28;20170;-88
2022/01/16 12:40:52;;;;;;;84.50;43.35;;;0.40;99.90;;;;;;5037282;28;20482;-87
2022/01/16 12:43:29;;;;;;;81.80;42.70;;;0.40;99.90;;;;;;5037023;28;20174;-88
2022/01/16 12:45:55;;;;;;;89.30;46.03;;;0.50;99.90;;;;;;5038323;28;20212;-87
2022/01/16 12:48:22;;;;;;;80.32;40.60;;;0.50;99.90;;;;;;5037220;28;20178;-87
2022/01/16 12:50:48;;;;;;;85.60;45.42;;;0.50;99.90;;;;;;5054837;28;20198;-87
2022/01/16 12:53:29;;;;;;;107.57;58.28;;;0.50;99.90;;;;;;5054426;28;20611;-88
2022/01/16 12:55:55;;;;;;;129.18;70.03;;;0.50;99.90;;;;;;5054627;28;20202;-88
2022/01/16 12:58:22;;;;;;;172.13;108.03;;;0.50;99.90;;;;;;5036751;28;20181;-86
2022/01/16 13:01:00;;;;;;;109.38;54.97;;;0.50;99.90;;;;;;5055730;28;20441;-87
2022/01/16 13:03:28;;;;;;;113.57;66.03;;;0.40;99.90;;;;;;5036506;28;20673;-87
2022/01/16 13:06:16;;;;;;;101.07;47.53;;;0.40;99.90;;;;;;5036654;28;20258;-87
2022/01/16 13:08:51;;;;;;;79.43;41.40;;;0.40;99.90;;;;;;5037325;28;20198;-87
2022/01/16 13:11:17;;;;;;;101.15;50.28;;;0.40;99.90;;;;;;5054955;28;20201;-87
2022/01/16 13:13:43;;;;;;;85.40;46.87;;;0.40;99.90;;;;;;5036585;28;20284;-88
2022/01/16 13:16:22;;;;;;;78.17;41.23;;;0.40;99.90;;;;;;5054922;28;20244;-88
2022/01/16 13:19:03;;;;;;;86.63;42.53;;;0.40;99.90;;;;;;5036732;28;20901;-88